Sealand Illinois — 9HA3372 — position and weather

sailwx.info

Track history (hours):
 
Tides and Currents Weather Stations Pressure Air Temp Water Temp Dewpoint Dewpoint Depression Visibility Wind Speed Wind Dir Waves Ship Positions

Sealand Illinois

Last reported at 2018-Aug-19 22:30 UTC. Time now 2018-Aug-19 22:51 UTC.
Position N 38°22' E 000°20'.

Length 304 m; draft 13 m.

Type: Cargo ship. MMSI: 229487000.

Date/timePositionNaut miles runAvg speedWind from/ knotsBaromVisibWave heightAir tempDewpointWater temp
2018-Aug-19 22:30N 38°22' E 000°20'1614.0
2018-Aug-19 21:23N 38°34' E 000°34'1313.9
2018-Aug-19 20:27N 38°44' E 000°45'613.8
2018-Aug-19 20:00N 38°48' E 000°50'3913.8
2018-Aug-19 17:08N 39°16' E 001°25'6813.9
2018-Aug-19 12:13N 40°04' E 002°29'413.7
2018-Aug-19 11:57N 40°07' E 002°32'613.6
2018-Aug-19 11:30N 40°11' E 002°38'713.8
2018-Aug-19 11:00N 40°16' E 002°44'2114.0
2018-Aug-19 09:31N 40°31' E 003°03'114.0
2018-Aug-19 09:28N 40°31' E 003°04'713.4
2018-Aug-19 08:55N 40°35' E 003°12'12113.9
2018-Aug-19 00:15N 41°56' E 005°11'3113.9
2018-Aug-18 22:00N 42°16' E 005°43'714.0
2018-Aug-18 21:30N 42°21' E 005°50'714.1
2018-Aug-18 21:00N 42°25' E 005°58'714.0
2018-Aug-18 20:30N 42°29' E 006°05'714.0
2018-Aug-18 20:00N 42°34' E 006°13'713.9
2018-Aug-18 19:30N 42°38' E 006°20'714.1
2018-Aug-18 19:00N 42°43' E 006°27'713.7
2018-Aug-18 18:30N 42°48' E 006°34'713.8
2018-Aug-18 18:00N 42°52' E 006°41'713.9
2018-Aug-18 17:31N 42°56' E 006°49'714.0
2018-Aug-18 17:01N 43°00' E 006°56'714.0
2018-Aug-18 16:30N 43°05' E 007°03'713.9
2018-Aug-18 16:01N 43°10' E 007°10'713.8
2018-Aug-18 15:30N 43°14' E 007°17'713.8
2018-Aug-18 15:00N 43°19' E 007°24'714.0
2018-Aug-18 14:30N 43°24' E 007°31'714.0
2018-Aug-18 14:00N 43°29' E 007°38'714.0
2018-Aug-18 13:30N 43°33' E 007°45'713.8
2018-Aug-18 13:00N 43°38' E 007°52'713.7
2018-Aug-18 12:30N 43°43' E 007°59'714.2
2018-Aug-18 12:01N 43°47' E 008°07'714.1
2018-Aug-18 11:30N 43°52' E 008°14'714.0
2018-Aug-18 11:00N 43°57' E 008°20'714.2
2018-Aug-18 10:30N 44°03' E 008°26'714.1
2018-Aug-18 10:00N 44°09' E 008°32'714.0
2018-Aug-18 09:31N 44°14' E 008°38'714.0
2018-Aug-18 09:00N 44°21' E 008°42'510.3
2018-Aug-18 08:30N 44°25' E 008°46'1 2.0
2018-Aug-18 07:58N 44°25' E 008°47'0 0.0
2018-Aug-18 07:28N 44°25' E 008°47'0 0.0
2018-Aug-18 06:58N 44°25' E 008°47'0 0.0
2018-Aug-18 06:28N 44°25' E 008°47'0 0.0
2018-Aug-18 05:58N 44°25' E 008°47'0 0.0
2018-Aug-18 05:28N 44°25' E 008°47'0 0.0
2018-Aug-18 04:58N 44°25' E 008°47'0 0.0
2018-Aug-18 04:28N 44°25' E 008°47'0 0.0
2018-Aug-18 03:58N 44°25' E 008°47'0 0.0
2018-Aug-18 03:28N 44°25' E 008°47'0 0.0
2018-Aug-18 02:58N 44°25' E 008°47'0 0.0
2018-Aug-18 02:28N 44°25' E 008°47'0 0.0
2018-Aug-18 01:58N 44°25' E 008°47'0 0.0
2018-Aug-18 01:28N 44°25' E 008°47'0 0.0
2018-Aug-18 00:58N 44°25' E 008°47'0 0.0
2018-Aug-18 00:28N 44°25' E 008°47'0 0.0
2018-Aug-17 23:58N 44°25' E 008°47'0 0.0
2018-Aug-17 23:28N 44°25' E 008°47'0 0.0
2018-Aug-17 22:58N 44°25' E 008°47'0 0.0
2018-Aug-17 22:28N 44°25' E 008°47'0 0.0
2018-Aug-17 21:58N 44°25' E 008°47'0 0.0
2018-Aug-17 21:28N 44°25' E 008°47'0 0.0
2018-Aug-17 20:58N 44°25' E 008°47'0 0.0
2018-Aug-17 20:28N 44°25' E 008°47'0 0.0
2018-Aug-17 19:58N 44°25' E 008°47'0 0.0
2018-Aug-17 19:30N 44°25' E 008°47'0 0.0
2018-Aug-17 19:00N 44°25' E 008°47'0 0.0
2018-Aug-17 18:30N 44°25' E 008°47'0 0.0
2018-Aug-17 18:00N 44°25' E 008°47'0 0.0
2018-Aug-17 17:30N 44°25' E 008°47'0 0.0
2018-Aug-17 17:00N 44°25' E 008°47'0 0.0
2018-Aug-17 16:30N 44°25' E 008°47'0 0.0
2018-Aug-17 16:00N 44°25' E 008°47'0 0.0
2018-Aug-17 15:30N 44°25' E 008°47'0 0.0
2018-Aug-17 15:00N 44°25' E 008°47'0 0.0
2018-Aug-17 14:00N 44°25' E 008°47'0 0.0
2018-Aug-17 13:30N 44°25' E 008°47'0 0.0
2018-Aug-17 13:00N 44°25' E 008°47'0 0.0
2018-Aug-17 12:30N 44°25' E 008°47'0 0.0
2018-Aug-17 12:00N 44°25' E 008°47'0 0.0
2018-Aug-17 11:30N 44°25' E 008°47'0 0.0
2018-Aug-17 11:00N 44°25' E 008°47'0 0.0
2018-Aug-17 10:30N 44°25' E 008°47'0 0.0
2018-Aug-17 10:00N 44°25' E 008°47'0 0.0
2018-Aug-17 09:30N 44°25' E 008°47'0 0.0
2018-Aug-17 08:57N 44°25' E 008°47'0 0.0
2018-Aug-17 08:30N 44°25' E 008°47'0 0.0
2018-Aug-17 08:00N 44°25' E 008°47'0 0.0
2018-Aug-17 07:30N 44°25' E 008°47'0 0.0
2018-Aug-17 07:00N 44°25' E 008°47'0 0.0
2018-Aug-17 06:30N 44°25' E 008°47'0 0.0
2018-Aug-17 06:00N 44°25' E 008°47'0 0.0
2018-Aug-17 05:30N 44°25' E 008°47'0 0.0
2018-Aug-17 05:00N 44°25' E 008°47'0 0.0
2018-Aug-17 04:27N 44°25' E 008°47'0 0.0
2018-Aug-17 04:00N 44°25' E 008°47'0 0.0
2018-Aug-17 03:30N 44°25' E 008°47'0 0.0
2018-Aug-17 03:00N 44°25' E 008°47'0 0.0
2018-Aug-17 02:30N 44°25' E 008°47'0 0.0
2018-Aug-17 02:00N 44°25' E 008°47'0 0.0
2018-Aug-17 01:30N 44°25' E 008°47'0 0.0
2018-Aug-17 01:00N 44°25' E 008°47'0 0.0
2018-Aug-17 00:30N 44°25' E 008°47'0 0.0
2018-Aug-17 00:00N 44°25' E 008°47'0 0.0
2018-Aug-16 23:30N 44°25' E 008°47'0 0.0
2018-Aug-16 23:00N 44°25' E 008°47'0 0.0
2018-Aug-16 22:30N 44°25' E 008°47'0 0.0
2018-Aug-16 22:00N 44°25' E 008°47'0 0.0
2018-Aug-16 21:30N 44°25' E 008°47'0 0.0
2018-Aug-16 21:00N 44°25' E 008°47'0 0.0
2018-Aug-16 20:30N 44°25' E 008°47'0 0.0
2018-Aug-16 20:00N 44°25' E 008°47'0 0.0
2018-Aug-16 19:30N 44°25' E 008°47'0 0.0
2018-Aug-16 19:00N 44°25' E 008°47'0 0.0
2018-Aug-16 18:30N 44°25' E 008°47'0 0.0
2018-Aug-16 18:00N 44°25' E 008°47'0 0.0
2018-Aug-16 17:30N 44°25' E 008°47'0 0.0
2018-Aug-16 17:00N 44°25' E 008°47'0 0.0
2018-Aug-16 16:30N 44°25' E 008°47'0 0.0
2018-Aug-16 16:00N 44°25' E 008°47'0 0.0
2018-Aug-16 15:30N 44°25' E 008°47'0 0.0
2018-Aug-16 15:00N 44°25' E 008°47'0 0.0
2018-Aug-16 14:30N 44°25' E 008°47'0 0.0
2018-Aug-16 14:00N 44°25' E 008°47'0 0.0
2018-Aug-16 13:30N 44°25' E 008°47'0 0.0
2018-Aug-16 12:57N 44°25' E 008°47'0 0.0
2018-Aug-16 12:30N 44°25' E 008°47'0 0.0
2018-Aug-16 12:00N 44°25' E 008°47'0 0.0
2018-Aug-16 11:30N 44°25' E 008°47'0 0.0
2018-Aug-16 11:00N 44°25' E 008°47'0 0.0
2018-Aug-16 10:30N 44°25' E 008°47'0 0.0
2018-Aug-16 10:00N 44°25' E 008°47'0 0.0
2018-Aug-16 09:30N 44°25' E 008°47'0 0.0
2018-Aug-16 09:00N 44°25' E 008°47'0 0.0
2018-Aug-16 08:28N 44°25' E 008°47'1 3.3
2018-Aug-16 08:01N 44°25' E 008°45'4 7.4
2018-Aug-16 07:31N 44°22' E 008°43'714.7
2018-Aug-16 07:01N 44°15' E 008°47'3 6.3
2018-Aug-16 06:30N 44°12' E 008°48'0 0.3
2018-Aug-16 06:00N 44°12' E 008°48'0 0.5
2018-Aug-16 05:30N 44°12' E 008°49'0 0.4
2018-Aug-16 05:00N 44°12' E 008°49'0 0.5
2018-Aug-16 04:30N 44°12' E 008°49'0 0.5
2018-Aug-16 04:00N 44°12' E 008°50'0 0.4
2018-Aug-16 03:30N 44°12' E 008°50'0 0.4
2018-Aug-16 03:00N 44°12' E 008°50'0 0.4
2018-Aug-16 02:30N 44°12' E 008°50'0 0.4
2018-Aug-16 02:00N 44°12' E 008°51'0 0.4
2018-Aug-16 01:30N 44°13' E 008°51'0 0.4
2018-Aug-16 01:00N 44°13' E 008°51'0 0.4
2018-Aug-16 00:30N 44°13' E 008°51'0 0.4
2018-Aug-16 00:00N 44°13' E 008°51'0 0.3
2018-Aug-15 23:30N 44°13' E 008°51'0 0.2
2018-Aug-15 23:00N 44°13' E 008°51'0 0.2
2018-Aug-15 22:30N 44°13' E 008°51'0 0.2
2018-Aug-15 22:00N 44°13' E 008°51'0 0.2
2018-Aug-15 21:30N 44°13' E 008°51'0 0.2
2018-Aug-15 21:00N 44°14' E 008°51'0 0.1
2018-Aug-15 20:30N 44°13' E 008°51'0 0.4
2018-Aug-15 20:00N 44°13' E 008°51'0 0.3
2018-Aug-15 19:30N 44°13' E 008°51'0 0.4
2018-Aug-15 19:00N 44°13' E 008°51'0 0.4
2018-Aug-15 18:30N 44°13' E 008°51'0 0.3
2018-Aug-15 18:00N 44°13' E 008°51'0 0.4
2018-Aug-15 17:30N 44°12' E 008°51'0 0.4
2018-Aug-15 17:00N 44°12' E 008°51'0 0.4
2018-Aug-15 16:30N 44°12' E 008°51'0 0.4
2018-Aug-15 16:00N 44°12' E 008°52'0 0.4
2018-Aug-15 15:30N 44°12' E 008°52'0 0.4
2018-Aug-15 15:00N 44°12' E 008°52'0 0.3
2018-Aug-15 14:30N 44°11' E 008°52'0 0.1
2018-Aug-15 14:00N 44°11' E 008°52'0 0.1
2018-Aug-15 13:30N 44°12' E 008°52'0 0.2
2018-Aug-15 13:00N 44°12' E 008°52'0 0.4
2018-Aug-15 12:30N 44°12' E 008°53'0 0.4
2018-Aug-15 12:00N 44°12' E 008°53'0 0.5
2018-Aug-15 11:30N 44°12' E 008°53'0 0.4
2018-Aug-15 11:00N 44°12' E 008°53'0 0.5
2018-Aug-15 10:31N 44°12' E 008°53'0 0.5
2018-Aug-15 10:00N 44°13' E 008°54'0 0.5
2018-Aug-15 09:30N 44°13' E 008°54'0 0.4
2018-Aug-15 09:01N 44°13' E 008°54'2 3.4
2018-Aug-15 08:30N 44°14' E 008°51'3 6.9
2018-Aug-15 08:00N 44°15' E 008°47'3 5.7
2018-Aug-15 07:30N 44°17' E 008°44'713.4
2018-Aug-15 07:01N 44°12' E 008°51'815.4
2018-Aug-15 06:31N 44°07' E 008°58'815.9
2018-Aug-15 06:01N 44°01' E 009°06'816.1
2018-Aug-15 05:31N 43°55' E 009°13'611.0
2018-Aug-15 05:00N 43°51' E 009°19'510.7
2018-Aug-15 04:31N 43°48' E 009°25'510.8
2018-Aug-15 04:00N 43°44' E 009°30'510.5
2018-Aug-15 03:30N 43°41' E 009°36'510.3
2018-Aug-15 03:00N 43°38' E 009°42'510.5
2018-Aug-15 02:30N 43°36' E 009°48'510.7
2018-Aug-15 02:00N 43°34' E 009°55'511.0
2018-Aug-15 01:30N 43°32' E 010°02'611.1
2018-Aug-15 01:00N 43°30' E 010°09'510.8
2018-Aug-15 00:31N 43°32' E 010°16'3 5.2
2018-Aug-15 00:00N 43°34' E 010°18'1 1.2
2018-Aug-14 23:30N 43°35' E 010°18'0 0.0
2018-Aug-14 23:00N 43°35' E 010°18'0 0.0
2018-Aug-14 22:30N 43°35' E 010°18'0 0.0
2018-Aug-14 22:00N 43°35' E 010°18'0 0.0
2018-Aug-14 21:30N 43°35' E 010°18'0 0.0
2018-Aug-14 21:00N 43°35' E 010°18'0 0.0
2018-Aug-14 20:30N 43°35' E 010°18'0 0.0
2018-Aug-14 20:00N 43°35' E 010°18'0 0.0
2018-Aug-14 19:30N 43°35' E 010°18'0 0.0
2018-Aug-14 18:57N 43°35' E 010°18'0 0.0
2018-Aug-14 18:30N 43°35' E 010°18'0 0.0
2018-Aug-14 18:00N 43°35' E 010°18'0 0.0
2018-Aug-14 17:30N 43°35' E 010°18'0 0.0
2018-Aug-14 17:00N 43°35' E 010°18'0 0.0
2018-Aug-14 16:30N 43°35' E 010°18'0 0.0
2018-Aug-14 16:00N 43°35' E 010°18'0 0.0
2018-Aug-14 15:30N 43°35' E 010°18'0 0.0
2018-Aug-14 15:00N 43°35' E 010°18'0 0.0
2018-Aug-14 14:30N 43°35' E 010°18'0 0.0
2018-Aug-14 14:00N 43°35' E 010°18'0 0.0
2018-Aug-14 13:30N 43°35' E 010°18'0 0.0
2018-Aug-14 13:00N 43°35' E 010°18'0 0.0
2018-Aug-14 12:30N 43°35' E 010°18'0 0.0
2018-Aug-14 12:00N 43°35' E 010°18'0 0.0
2018-Aug-14 11:27N 43°35' E 010°18'0 0.0
2018-Aug-14 11:00N 43°35' E 010°18'0 0.0
2018-Aug-14 10:30N 43°35' E 010°18'0 0.0
2018-Aug-14 10:00N 43°35' E 010°18'0 0.0
2018-Aug-14 09:30N 43°35' E 010°18'0 0.0
2018-Aug-14 09:00N 43°35' E 010°18'0 0.0
2018-Aug-14 08:30N 43°35' E 010°18'0 0.0
2018-Aug-14 08:00N 43°35' E 010°18'0 0.0
2018-Aug-14 07:30N 43°35' E 010°18'0 0.0
2018-Aug-14 06:57N 43°35' E 010°18'0 0.0
2018-Aug-14 06:30N 43°35' E 010°18'0 0.0
2018-Aug-14 06:00N 43°35' E 010°18'0 0.0
2018-Aug-14 05:27N 43°35' E 010°18'0 0.0
2018-Aug-14 05:00N 43°35' E 010°18'0 0.0
2018-Aug-14 04:30N 43°35' E 010°18'0 0.0
2018-Aug-14 04:00N 43°35' E 010°18'0 0.0
2018-Aug-14 03:30N 43°35' E 010°18'0 0.0
2018-Aug-14 03:00N 43°35' E 010°18'0 0.0
2018-Aug-14 02:30N 43°35' E 010°18'0 0.0
2018-Aug-14 02:00N 43°35' E 010°18'0 0.0
2018-Aug-14 01:30N 43°35' E 010°18'0 0.0
2018-Aug-14 01:00N 43°35' E 010°18'0 0.0
2018-Aug-14 00:30N 43°35' E 010°18'0 0.0
2018-Aug-14 00:00N 43°35' E 010°18'0 0.0
2018-Aug-13 23:30N 43°35' E 010°18'0 0.0
2018-Aug-13 23:00N 43°35' E 010°18'0 0.0
2018-Aug-13 22:30N 43°35' E 010°18'0 0.0
2018-Aug-13 22:00N 43°35' E 010°18'0 0.0
2018-Aug-13 21:30N 43°35' E 010°18'0 0.0
2018-Aug-13 21:00N 43°35' E 010°18'0 0.0
2018-Aug-13 20:30N 43°35' E 010°18'0 0.0
2018-Aug-13 20:00N 43°35' E 010°18'0 0.0
2018-Aug-13 19:30N 43°35' E 010°18'0 0.0
2018-Aug-13 19:00N 43°35' E 010°18'0 0.0
2018-Aug-13 18:30N 43°35' E 010°18'0 0.0
2018-Aug-13 18:00N 43°35' E 010°18'0 0.0
2018-Aug-13 17:30N 43°35' E 010°18'0 0.0
2018-Aug-13 17:00N 43°35' E 010°18'0 0.0
2018-Aug-13 16:30N 43°35' E 010°18'0 0.0
2018-Aug-13 16:00N 43°35' E 010°18'0 0.0
2018-Aug-13 15:30N 43°35' E 010°18'0 0.6
2018-Aug-13 15:00N 43°34' E 010°18'2 4.1
2018-Aug-13 14:30N 43°32' E 010°17'3 7.0
2018-Aug-13 14:00N 43°30' E 010°14'815.7
2018-Aug-13 13:30N 43°22' E 010°10'1019.4
2018-Aug-13 13:00N 43°13' E 010°08'1019.4
2018-Aug-13 12:30N 43°04' E 010°04'1018.9
2018-Aug-13 12:00N 42°54' E 010°02'1618.9
2018-Aug-13 11:08N 42°38' E 010°09'319.8
2018-Aug-13 10:59N 42°36' E 010°11'1619.6
2018-Aug-13 10:10N 42°23' E 010°24'819.4
2018-Aug-13 09:44N 42°16' E 010°31'519.5
2018-Aug-13 09:30N 42°13' E 010°35'1019.6
2018-Aug-13 09:00N 42°04' E 010°41'13919.2
2018-Aug-13 01:46N 40°45' E 013°13'719.2
2018-Aug-13 01:24N 40°43' E 013°22'719.2
2018-Aug-13 01:00N 40°41' E 013°32'1019.3
2018-Aug-13 00:30N 40°39' E 013°44'1019.4
2018-Aug-13 00:00N 40°38' E 013°57'1019.1
2018-Aug-12 23:30N 40°42' E 014°09'917.6
2018-Aug-12 23:00N 40°48' E 014°17'3 5.4
2018-Aug-12 22:30N 40°50' E 014°17'0 0.0
2018-Aug-12 21:58N 40°50' E 014°17'0 0.0
2018-Aug-12 21:28N 40°50' E 014°17'0 0.0
2018-Aug-12 20:58N 40°50' E 014°17'0 0.0
2018-Aug-12 20:28N 40°50' E 014°17'0 0.0
2018-Aug-12 19:58N 40°50' E 014°17'0 0.0
2018-Aug-12 19:28N 40°50' E 014°17'0 0.0
2018-Aug-12 18:58N 40°50' E 014°17'0 0.0
2018-Aug-12 18:28N 40°50' E 014°17'0 0.0
2018-Aug-12 17:55N 40°50' E 014°17'0 0.0
2018-Aug-12 17:25N 40°50' E 014°17'0 0.0
2018-Aug-12 16:58N 40°50' E 014°17'0 0.0
2018-Aug-12 16:28N 40°50' E 014°17'0 0.0
2018-Aug-12 15:58N 40°50' E 014°17'0 0.0
2018-Aug-12 15:28N 40°50' E 014°17'0 0.0
2018-Aug-12 14:58N 40°50' E 014°17'0 0.0
2018-Aug-12 14:28N 40°50' E 014°17'0 0.0
2018-Aug-12 13:58N 40°50' E 014°17'0 0.0
2018-Aug-12 13:28N 40°50' E 014°17'0 0.0
2018-Aug-12 12:58N 40°50' E 014°17'0 0.0
2018-Aug-12 12:28N 40°50' E 014°17'0 0.0
2018-Aug-12 11:58N 40°50' E 014°17'0 0.0
2018-Aug-12 11:28N 40°50' E 014°17'0 0.0
2018-Aug-12 10:58N 40°50' E 014°17'0 0.0
2018-Aug-12 10:28N 40°50' E 014°17'0 0.0
2018-Aug-12 09:58N 40°50' E 014°17'0 0.0
2018-Aug-12 09:28N 40°50' E 014°17'0 0.0
2018-Aug-12 08:58N 40°50' E 014°17'0 0.0
2018-Aug-12 08:28N 40°50' E 014°17'0 0.0
2018-Aug-12 07:58N 40°50' E 014°17'0 0.0
2018-Aug-12 07:28N 40°50' E 014°17'0 0.0
2018-Aug-12 06:58N 40°50' E 014°17'0 0.0
2018-Aug-12 06:28N 40°50' E 014°17'0 0.0
2018-Aug-12 05:58N 40°50' E 014°17'0 0.0
2018-Aug-12 05:28N 40°50' E 014°17'0 0.0
2018-Aug-12 04:52N 40°50' E 014°17'0 0.0
2018-Aug-12 04:28N 40°50' E 014°17'0 0.0
2018-Aug-12 03:58N 40°50' E 014°17'0 0.0
2018-Aug-12 03:28N 40°50' E 014°17'0 0.0
2018-Aug-12 02:55N 40°50' E 014°17'0 0.0
2018-Aug-12 02:25N 40°50' E 014°17'0 0.0
2018-Aug-12 01:58N 40°50' E 014°17'0 0.0
2018-Aug-12 01:28N 40°50' E 014°17'0 0.0
2018-Aug-12 00:58N 40°50' E 014°17'0 0.0
2018-Aug-12 00:28N 40°50' E 014°17'0 0.0
2018-Aug-11 23:58N 40°50' E 014°17'0 0.0
2018-Aug-11 23:28N 40°50' E 014°17'0 0.0
2018-Aug-11 22:58N 40°50' E 014°17'0 0.0
2018-Aug-11 22:28N 40°50' E 014°17'0 0.0
2018-Aug-11 21:58N 40°50' E 014°17'0 0.0
2018-Aug-11 21:28N 40°50' E 014°17'0 0.0
2018-Aug-11 20:58N 40°50' E 014°17'0 0.0
2018-Aug-11 20:28N 40°50' E 014°17'0 0.0
2018-Aug-11 19:58N 40°50' E 014°17'0 0.0
2018-Aug-11 19:28N 40°50' E 014°17'0 0.0
2018-Aug-11 18:58N 40°50' E 014°17'0 0.0
2018-Aug-11 18:28N 40°50' E 014°17'0 0.0
2018-Aug-11 17:58N 40°50' E 014°17'0 0.0
2018-Aug-11 17:28N 40°50' E 014°17'0 0.0
2018-Aug-11 16:58N 40°50' E 014°17'0 0.0
2018-Aug-11 16:22N 40°50' E 014°17'0 0.0
2018-Aug-11 15:52N 40°50' E 014°17'0 0.0
2018-Aug-11 15:22N 40°50' E 014°17'0 0.0
2018-Aug-11 14:55N 40°50' E 014°17'0 0.0
2018-Aug-11 14:28N 40°50' E 014°17'0 0.0
2018-Aug-11 13:58N 40°50' E 014°17'0 0.0
2018-Aug-11 13:28N 40°50' E 014°17'0 0.0
2018-Aug-11 12:58N 40°50' E 014°17'0 0.0
2018-Aug-11 12:28N 40°50' E 014°17'0 0.0
2018-Aug-11 11:58N 40°50' E 014°17'0 0.0
2018-Aug-11 11:25N 40°50' E 014°17'0 0.0
2018-Aug-11 10:55N 40°50' E 014°17'0 0.0
2018-Aug-11 10:28N 40°50' E 014°17'0 0.0
2018-Aug-11 09:58N 40°50' E 014°17'0 0.0
2018-Aug-11 09:28N 40°50' E 014°17'0 0.0
2018-Aug-11 08:58N 40°50' E 014°17'0 0.0
2018-Aug-11 08:25N 40°50' E 014°17'0 0.0
2018-Aug-11 07:58N 40°50' E 014°17'0 0.0
2018-Aug-11 07:28N 40°50' E 014°17'0 0.0
2018-Aug-11 06:58N 40°50' E 014°17'0 0.0
2018-Aug-11 06:28N 40°50' E 014°17'0 0.0
2018-Aug-11 05:58N 40°50' E 014°17'0 0.0
2018-Aug-11 05:28N 40°50' E 014°17'0 0.0
2018-Aug-11 04:56N 40°50' E 014°17'0 0.4
2018-Aug-11 04:30N 40°50' E 014°17'2 3.5
2018-Aug-11 04:00N 40°48' E 014°17'3 6.8
2018-Aug-11 03:30N 40°45' E 014°15'611.8
2018-Aug-11 03:00N 40°40' E 014°11'815.2
2018-Aug-11 02:30N 40°34' E 014°06'816.3
2018-Aug-11 02:00N 40°26' E 014°10'817.0
2018-Aug-11 01:30N 40°19' E 014°16'816.9
2018-Aug-11 01:00N 40°12' E 014°23'816.3
2018-Aug-11 00:30N 40°05' E 014°28'816.2
2018-Aug-11 00:00N 39°58' E 014°34'816.1
2018-Aug-10 23:30N 39°52' E 014°41'815.8
2018-Aug-10 23:00N 39°45' E 014°46'5217.2
2018-Aug-10 19:57N 39°00' E 015°21'817.4
2018-Aug-10 19:30N 38°54' E 015°27'2917.0
2018-Aug-10 17:48N 38°30' E 015°48'514.0
2018-Aug-10 17:27N 38°27' E 015°53'1 0.8
2018-Aug-10 15:57N 38°27' E 015°54'0 0.0
2018-Aug-10 15:03N 38°27' E 015°54'0 0.0
2018-Aug-10 14:39N 38°27' E 015°54'0 0.0
2018-Aug-10 14:27N 38°27' E 015°54'0 0.0
2018-Aug-10 13:51N 38°27' E 015°54'0 0.0
2018-Aug-10 13:27N 38°27' E 015°54'0 0.0
2018-Aug-10 12:57N 38°27' E 015°54'0 0.0
2018-Aug-10 12:27N 38°27' E 015°54'0 0.0
2018-Aug-10 11:57N 38°27' E 015°54'0 0.0
2018-Aug-10 11:21N 38°27' E 015°54'0 0.0
2018-Aug-10 10:21N 38°27' E 015°54'0 0.0
2018-Aug-10 09:51N 38°27' E 015°54'0 0.0
2018-Aug-10 09:21N 38°27' E 015°54'0 0.0
2018-Aug-10 08:57N 38°27' E 015°54'0 0.0
2018-Aug-10 08:21N 38°27' E 015°54'0 0.0
2018-Aug-10 07:33N 38°27' E 015°54'0 0.0
2018-Aug-10 07:21N 38°27' E 015°54'0 0.0
2018-Aug-10 06:57N 38°27' E 015°54'0 0.0
2018-Aug-10 05:39N 38°27' E 015°54'0 0.0
2018-Aug-10 05:27N 38°27' E 015°54'0 0.0
2018-Aug-10 04:57N 38°27' E 015°54'0 0.0
2018-Aug-10 04:15N 38°27' E 015°54'0 0.0
2018-Aug-10 03:57N 38°27' E 015°54'0 0.0
2018-Aug-10 03:27N 38°27' E 015°54'0 0.0
2018-Aug-10 02:57N 38°27' E 015°54'0 0.0
2018-Aug-10 01:45N 38°27' E 015°54'0 0.0
2018-Aug-10 01:27N 38°27' E 015°54'0 0.0
2018-Aug-10 00:51N 38°27' E 015°54'  
Track history (hours):
 
Tides and Currents Weather Stations Pressure Air Temp Water Temp Dewpoint Dewpoint Depression Visibility Wind Speed Wind Dir Waves Ship Positions

Sealand Illinois

Last reported at 2018-Aug-19 22:30 UTC. Time now 2018-Aug-19 22:51 UTC.
Position N 38°22' E 000°20'.

Length 304 m; draft 13 m.

Type: Cargo ship. MMSI: 229487000.

Date/timePositionNaut miles runAvg speedWind from/ knotsBaromVisibWave heightAir tempDewpointWater temp
2018-Aug-19 22:30N 38°22' E 000°20'1614.0
2018-Aug-19 21:23N 38°34' E 000°34'1313.9
2018-Aug-19 20:27N 38°44' E 000°45'613.8
2018-Aug-19 20:00N 38°48' E 000°50'3913.8
2018-Aug-19 17:08N 39°16' E 001°25'6813.9
2018-Aug-19 12:13N 40°04' E 002°29'413.7
2018-Aug-19 11:57N 40°07' E 002°32'613.6
2018-Aug-19 11:30N 40°11' E 002°38'713.8
2018-Aug-19 11:00N 40°16' E 002°44'2114.0
2018-Aug-19 09:31N 40°31' E 003°03'114.0
2018-Aug-19 09:28N 40°31' E 003°04'713.4
2018-Aug-19 08:55N 40°35' E 003°12'12113.9
2018-Aug-19 00:15N 41°56' E 005°11'3113.9
2018-Aug-18 22:00N 42°16' E 005°43'714.0
2018-Aug-18 21:30N 42°21' E 005°50'714.1
2018-Aug-18 21:00N 42°25' E 005°58'714.0
2018-Aug-18 20:30N 42°29' E 006°05'714.0
2018-Aug-18 20:00N 42°34' E 006°13'713.9
2018-Aug-18 19:30N 42°38' E 006°20'714.1
2018-Aug-18 19:00N 42°43' E 006°27'713.7
2018-Aug-18 18:30N 42°48' E 006°34'713.8
2018-Aug-18 18:00N 42°52' E 006°41'713.9
2018-Aug-18 17:31N 42°56' E 006°49'714.0
2018-Aug-18 17:01N 43°00' E 006°56'714.0
2018-Aug-18 16:30N 43°05' E 007°03'713.9
2018-Aug-18 16:01N 43°10' E 007°10'713.8
2018-Aug-18 15:30N 43°14' E 007°17'713.8
2018-Aug-18 15:00N 43°19' E 007°24'714.0
2018-Aug-18 14:30N 43°24' E 007°31'714.0
2018-Aug-18 14:00N 43°29' E 007°38'714.0
2018-Aug-18 13:30N 43°33' E 007°45'713.8
2018-Aug-18 13:00N 43°38' E 007°52'713.7
2018-Aug-18 12:30N 43°43' E 007°59'714.2
2018-Aug-18 12:01N 43°47' E 008°07'714.1
2018-Aug-18 11:30N 43°52' E 008°14'714.0
2018-Aug-18 11:00N 43°57' E 008°20'714.2
2018-Aug-18 10:30N 44°03' E 008°26'714.1
2018-Aug-18 10:00N 44°09' E 008°32'714.0
2018-Aug-18 09:31N 44°14' E 008°38'714.0
2018-Aug-18 09:00N 44°21' E 008°42'510.3
2018-Aug-18 08:30N 44°25' E 008°46'1 2.0
2018-Aug-18 07:58N 44°25' E 008°47'0 0.0
2018-Aug-18 07:28N 44°25' E 008°47'0 0.0
2018-Aug-18 06:58N 44°25' E 008°47'0 0.0
2018-Aug-18 06:28N 44°25' E 008°47'0 0.0
2018-Aug-18 05:58N 44°25' E 008°47'0 0.0
2018-Aug-18 05:28N 44°25' E 008°47'0 0.0
2018-Aug-18 04:58N 44°25' E 008°47'0 0.0
2018-Aug-18 04:28N 44°25' E 008°47'0 0.0
2018-Aug-18 03:58N 44°25' E 008°47'0 0.0
2018-Aug-18 03:28N 44°25' E 008°47'0 0.0
2018-Aug-18 02:58N 44°25' E 008°47'0 0.0
2018-Aug-18 02:28N 44°25' E 008°47'0 0.0
2018-Aug-18 01:58N 44°25' E 008°47'0 0.0
2018-Aug-18 01:28N 44°25' E 008°47'0 0.0
2018-Aug-18 00:58N 44°25' E 008°47'0 0.0
2018-Aug-18 00:28N 44°25' E 008°47'0 0.0
2018-Aug-17 23:58N 44°25' E 008°47'0 0.0
2018-Aug-17 23:28N 44°25' E 008°47'0 0.0
2018-Aug-17 22:58N 44°25' E 008°47'0 0.0
2018-Aug-17 22:28N 44°25' E 008°47'0 0.0
2018-Aug-17 21:58N 44°25' E 008°47'0 0.0
2018-Aug-17 21:28N 44°25' E 008°47'0 0.0
2018-Aug-17 20:58N 44°25' E 008°47'0 0.0
2018-Aug-17 20:28N 44°25' E 008°47'0 0.0
2018-Aug-17 19:58N 44°25' E 008°47'0 0.0
2018-Aug-17 19:30N 44°25' E 008°47'0 0.0
2018-Aug-17 19:00N 44°25' E 008°47'0 0.0
2018-Aug-17 18:30N 44°25' E 008°47'0 0.0
2018-Aug-17 18:00N 44°25' E 008°47'0 0.0
2018-Aug-17 17:30N 44°25' E 008°47'0 0.0
2018-Aug-17 17:00N 44°25' E 008°47'0 0.0
2018-Aug-17 16:30N 44°25' E 008°47'0 0.0
2018-Aug-17 16:00N 44°25' E 008°47'0 0.0
2018-Aug-17 15:30N 44°25' E 008°47'0 0.0
2018-Aug-17 15:00N 44°25' E 008°47'0 0.0
2018-Aug-17 14:00N 44°25' E 008°47'0 0.0
2018-Aug-17 13:30N 44°25' E 008°47'0 0.0
2018-Aug-17 13:00N 44°25' E 008°47'0 0.0
2018-Aug-17 12:30N 44°25' E 008°47'0 0.0
2018-Aug-17 12:00N 44°25' E 008°47'0 0.0
2018-Aug-17 11:30N 44°25' E 008°47'0 0.0
2018-Aug-17 11:00N 44°25' E 008°47'0 0.0
2018-Aug-17 10:30N 44°25' E 008°47'0 0.0
2018-Aug-17 10:00N 44°25' E 008°47'0 0.0
2018-Aug-17 09:30N 44°25' E 008°47'0 0.0
2018-Aug-17 08:57N 44°25' E 008°47'0 0.0
2018-Aug-17 08:30N 44°25' E 008°47'0 0.0
2018-Aug-17 08:00N 44°25' E 008°47'0 0.0
2018-Aug-17 07:30N 44°25' E 008°47'0 0.0
2018-Aug-17 07:00N 44°25' E 008°47'0 0.0
2018-Aug-17 06:30N 44°25' E 008°47'0 0.0
2018-Aug-17 06:00N 44°25' E 008°47'0 0.0
2018-Aug-17 05:30N 44°25' E 008°47'0 0.0
2018-Aug-17 05:00N 44°25' E 008°47'0 0.0
2018-Aug-17 04:27N 44°25' E 008°47'0 0.0
2018-Aug-17 04:00N 44°25' E 008°47'0 0.0
2018-Aug-17 03:30N 44°25' E 008°47'0 0.0
2018-Aug-17 03:00N 44°25' E 008°47'0 0.0
2018-Aug-17 02:30N 44°25' E 008°47'0 0.0
2018-Aug-17 02:00N 44°25' E 008°47'0 0.0
2018-Aug-17 01:30N 44°25' E 008°47'0 0.0
2018-Aug-17 01:00N 44°25' E 008°47'0 0.0
2018-Aug-17 00:30N 44°25' E 008°47'0 0.0
2018-Aug-17 00:00N 44°25' E 008°47'0 0.0
2018-Aug-16 23:30N 44°25' E 008°47'0 0.0
2018-Aug-16 23:00N 44°25' E 008°47'0 0.0
2018-Aug-16 22:30N 44°25' E 008°47'0 0.0
2018-Aug-16 22:00N 44°25' E 008°47'0 0.0
2018-Aug-16 21:30N 44°25' E 008°47'0 0.0
2018-Aug-16 21:00N 44°25' E 008°47'0 0.0
2018-Aug-16 20:30N 44°25' E 008°47'0 0.0
2018-Aug-16 20:00N 44°25' E 008°47'0 0.0
2018-Aug-16 19:30N 44°25' E 008°47'0 0.0
2018-Aug-16 19:00N 44°25' E 008°47'0 0.0
2018-Aug-16 18:30N 44°25' E 008°47'0 0.0
2018-Aug-16 18:00N 44°25' E 008°47'0 0.0
2018-Aug-16 17:30N 44°25' E 008°47'0 0.0
2018-Aug-16 17:00N 44°25' E 008°47'0 0.0
2018-Aug-16 16:30N 44°25' E 008°47'0 0.0
2018-Aug-16 16:00N 44°25' E 008°47'0 0.0
2018-Aug-16 15:30N 44°25' E 008°47'0 0.0
2018-Aug-16 15:00N 44°25' E 008°47'0 0.0
2018-Aug-16 14:30N 44°25' E 008°47'0 0.0
2018-Aug-16 14:00N 44°25' E 008°47'0 0.0
2018-Aug-16 13:30N 44°25' E 008°47'0 0.0
2018-Aug-16 12:57N 44°25' E 008°47'0 0.0
2018-Aug-16 12:30N 44°25' E 008°47'0 0.0
2018-Aug-16 12:00N 44°25' E 008°47'0 0.0
2018-Aug-16 11:30N 44°25' E 008°47'0 0.0
2018-Aug-16 11:00N 44°25' E 008°47'0 0.0
2018-Aug-16 10:30N 44°25' E 008°47'0 0.0
2018-Aug-16 10:00N 44°25' E 008°47'0 0.0
2018-Aug-16 09:30N 44°25' E 008°47'0 0.0
2018-Aug-16 09:00N 44°25' E 008°47'0 0.0
2018-Aug-16 08:28N 44°25' E 008°47'1 3.3
2018-Aug-16 08:01N 44°25' E 008°45'4 7.4
2018-Aug-16 07:31N 44°22' E 008°43'714.7
2018-Aug-16 07:01N 44°15' E 008°47'3 6.3
2018-Aug-16 06:30N 44°12' E 008°48'0 0.3
2018-Aug-16 06:00N 44°12' E 008°48'0 0.5
2018-Aug-16 05:30N 44°12' E 008°49'0 0.4
2018-Aug-16 05:00N 44°12' E 008°49'0 0.5
2018-Aug-16 04:30N 44°12' E 008°49'0 0.5
2018-Aug-16 04:00N 44°12' E 008°50'0 0.4
2018-Aug-16 03:30N 44°12' E 008°50'0 0.4
2018-Aug-16 03:00N 44°12' E 008°50'0 0.4
2018-Aug-16 02:30N 44°12' E 008°50'0 0.4
2018-Aug-16 02:00N 44°12' E 008°51'0 0.4
2018-Aug-16 01:30N 44°13' E 008°51'0 0.4
2018-Aug-16 01:00N 44°13' E 008°51'0 0.4
2018-Aug-16 00:30N 44°13' E 008°51'0 0.4
2018-Aug-16 00:00N 44°13' E 008°51'0 0.3
2018-Aug-15 23:30N 44°13' E 008°51'0 0.2
2018-Aug-15 23:00N 44°13' E 008°51'0 0.2
2018-Aug-15 22:30N 44°13' E 008°51'0 0.2
2018-Aug-15 22:00N 44°13' E 008°51'0 0.2
2018-Aug-15 21:30N 44°13' E 008°51'0 0.2
2018-Aug-15 21:00N 44°14' E 008°51'0 0.1
2018-Aug-15 20:30N 44°13' E 008°51'0 0.4
2018-Aug-15 20:00N 44°13' E 008°51'0 0.3
2018-Aug-15 19:30N 44°13' E 008°51'0 0.4
2018-Aug-15 19:00N 44°13' E 008°51'0 0.4
2018-Aug-15 18:30N 44°13' E 008°51'0 0.3
2018-Aug-15 18:00N 44°13' E 008°51'0 0.4
2018-Aug-15 17:30N 44°12' E 008°51'0 0.4
2018-Aug-15 17:00N 44°12' E 008°51'0 0.4
2018-Aug-15 16:30N 44°12' E 008°51'0 0.4
2018-Aug-15 16:00N 44°12' E 008°52'0 0.4
2018-Aug-15 15:30N 44°12' E 008°52'0 0.4
2018-Aug-15 15:00N 44°12' E 008°52'0 0.3
2018-Aug-15 14:30N 44°11' E 008°52'0 0.1
2018-Aug-15 14:00N 44°11' E 008°52'0 0.1
2018-Aug-15 13:30N 44°12' E 008°52'0 0.2
2018-Aug-15 13:00N 44°12' E 008°52'0 0.4
2018-Aug-15 12:30N 44°12' E 008°53'0 0.4
2018-Aug-15 12:00N 44°12' E 008°53'0 0.5
2018-Aug-15 11:30N 44°12' E 008°53'0 0.4
2018-Aug-15 11:00N 44°12' E 008°53'0 0.5
2018-Aug-15 10:31N 44°12' E 008°53'0 0.5
2018-Aug-15 10:00N 44°13' E 008°54'0 0.5
2018-Aug-15 09:30N 44°13' E 008°54'0 0.4
2018-Aug-15 09:01N 44°13' E 008°54'2 3.4
2018-Aug-15 08:30N 44°14' E 008°51'3 6.9
2018-Aug-15 08:00N 44°15' E 008°47'3 5.7
2018-Aug-15 07:30N 44°17' E 008°44'713.4
2018-Aug-15 07:01N 44°12' E 008°51'815.4
2018-Aug-15 06:31N 44°07' E 008°58'815.9
2018-Aug-15 06:01N 44°01' E 009°06'816.1
2018-Aug-15 05:31N 43°55' E 009°13'611.0
2018-Aug-15 05:00N 43°51' E 009°19'510.7
2018-Aug-15 04:31N 43°48' E 009°25'510.8
2018-Aug-15 04:00N 43°44' E 009°30'510.5
2018-Aug-15 03:30N 43°41' E 009°36'510.3
2018-Aug-15 03:00N 43°38' E 009°42'510.5
2018-Aug-15 02:30N 43°36' E 009°48'510.7
2018-Aug-15 02:00N 43°34' E 009°55'511.0
2018-Aug-15 01:30N 43°32' E 010°02'611.1
2018-Aug-15 01:00N 43°30' E 010°09'510.8
2018-Aug-15 00:31N 43°32' E 010°16'3 5.2
2018-Aug-15 00:00N 43°34' E 010°18'1 1.2
2018-Aug-14 23:30N 43°35' E 010°18'0 0.0
2018-Aug-14 23:00N 43°35' E 010°18'0 0.0
2018-Aug-14 22:30N 43°35' E 010°18'0 0.0
2018-Aug-14 22:00N 43°35' E 010°18'0 0.0
2018-Aug-14 21:30N 43°35' E 010°18'0 0.0
2018-Aug-14 21:00N 43°35' E 010°18'0 0.0
2018-Aug-14 20:30N 43°35' E 010°18'0 0.0
2018-Aug-14 20:00N 43°35' E 010°18'0 0.0
2018-Aug-14 19:30N 43°35' E 010°18'0 0.0
2018-Aug-14 18:57N 43°35' E 010°18'0 0.0
2018-Aug-14 18:30N 43°35' E 010°18'0 0.0
2018-Aug-14 18:00N 43°35' E 010°18'0 0.0
2018-Aug-14 17:30N 43°35' E 010°18'0 0.0
2018-Aug-14 17:00N 43°35' E 010°18'0 0.0
2018-Aug-14 16:30N 43°35' E 010°18'0 0.0
2018-Aug-14 16:00N 43°35' E 010°18'0 0.0
2018-Aug-14 15:30N 43°35' E 010°18'0 0.0
2018-Aug-14 15:00N 43°35' E 010°18'0 0.0
2018-Aug-14 14:30N 43°35' E 010°18'0 0.0
2018-Aug-14 14:00N 43°35' E 010°18'0 0.0
2018-Aug-14 13:30N 43°35' E 010°18'0 0.0
2018-Aug-14 13:00N 43°35' E 010°18'0 0.0
2018-Aug-14 12:30N 43°35' E 010°18'0 0.0
2018-Aug-14 12:00N 43°35' E 010°18'0 0.0
2018-Aug-14 11:27N 43°35' E 010°18'0 0.0
2018-Aug-14 11:00N 43°35' E 010°18'0 0.0
2018-Aug-14 10:30N 43°35' E 010°18'0 0.0
2018-Aug-14 10:00N 43°35' E 010°18'0 0.0
2018-Aug-14 09:30N 43°35' E 010°18'0 0.0
2018-Aug-14 09:00N 43°35' E 010°18'0 0.0
2018-Aug-14 08:30N 43°35' E 010°18'0 0.0
2018-Aug-14 08:00N 43°35' E 010°18'0 0.0
2018-Aug-14 07:30N 43°35' E 010°18'0 0.0
2018-Aug-14 06:57N 43°35' E 010°18'0 0.0
2018-Aug-14 06:30N 43°35' E 010°18'0 0.0
2018-Aug-14 06:00N 43°35' E 010°18'0 0.0
2018-Aug-14 05:27N 43°35' E 010°18'0 0.0
2018-Aug-14 05:00N 43°35' E 010°18'0 0.0
2018-Aug-14 04:30N 43°35' E 010°18'0 0.0
2018-Aug-14 04:00N 43°35' E 010°18'0 0.0
2018-Aug-14 03:30N 43°35' E 010°18'0 0.0
2018-Aug-14 03:00N 43°35' E 010°18'0 0.0
2018-Aug-14 02:30N 43°35' E 010°18'0 0.0
2018-Aug-14 02:00N 43°35' E 010°18'0 0.0
2018-Aug-14 01:30N 43°35' E 010°18'0 0.0
2018-Aug-14 01:00N 43°35' E 010°18'0 0.0
2018-Aug-14 00:30N 43°35' E 010°18'0 0.0
2018-Aug-14 00:00N 43°35' E 010°18'0 0.0
2018-Aug-13 23:30N 43°35' E 010°18'0 0.0
2018-Aug-13 23:00N 43°35' E 010°18'0 0.0
2018-Aug-13 22:30N 43°35' E 010°18'0 0.0
2018-Aug-13 22:00N 43°35' E 010°18'0 0.0
2018-Aug-13 21:30N 43°35' E 010°18'0 0.0
2018-Aug-13 21:00N 43°35' E 010°18'0 0.0
2018-Aug-13 20:30N 43°35' E 010°18'0 0.0
2018-Aug-13 20:00N 43°35' E 010°18'0 0.0
2018-Aug-13 19:30N 43°35' E 010°18'0 0.0
2018-Aug-13 19:00N 43°35' E 010°18'0 0.0
2018-Aug-13 18:30N 43°35' E 010°18'0 0.0
2018-Aug-13 18:00N 43°35' E 010°18'0 0.0
2018-Aug-13 17:30N 43°35' E 010°18'0 0.0
2018-Aug-13 17:00N 43°35' E 010°18'0 0.0
2018-Aug-13 16:30N 43°35' E 010°18'0 0.0
2018-Aug-13 16:00N 43°35' E 010°18'0 0.0
2018-Aug-13 15:30N 43°35' E 010°18'0 0.6
2018-Aug-13 15:00N 43°34' E 010°18'2 4.1
2018-Aug-13 14:30N 43°32' E 010°17'3 7.0
2018-Aug-13 14:00N 43°30' E 010°14'815.7
2018-Aug-13 13:30N 43°22' E 010°10'1019.4
2018-Aug-13 13:00N 43°13' E 010°08'1019.4
2018-Aug-13 12:30N 43°04' E 010°04'1018.9
2018-Aug-13 12:00N 42°54' E 010°02'1618.9
2018-Aug-13 11:08N 42°38' E 010°09'319.8
2018-Aug-13 10:59N 42°36' E 010°11'1619.6
2018-Aug-13 10:10N 42°23' E 010°24'819.4
2018-Aug-13 09:44N 42°16' E 010°31'519.5
2018-Aug-13 09:30N 42°13' E 010°35'1019.6
2018-Aug-13 09:00N 42°04' E 010°41'13919.2
2018-Aug-13 01:46N 40°45' E 013°13'719.2
2018-Aug-13 01:24N 40°43' E 013°22'719.2
2018-Aug-13 01:00N 40°41' E 013°32'1019.3
2018-Aug-13 00:30N 40°39' E 013°44'1019.4
2018-Aug-13 00:00N 40°38' E 013°57'1019.1
2018-Aug-12 23:30N 40°42' E 014°09'917.6
2018-Aug-12 23:00N 40°48' E 014°17'3 5.4
2018-Aug-12 22:30N 40°50' E 014°17'0 0.0
2018-Aug-12 21:58N 40°50' E 014°17'0 0.0
2018-Aug-12 21:28N 40°50' E 014°17'0 0.0
2018-Aug-12 20:58N 40°50' E 014°17'0 0.0
2018-Aug-12 20:28N 40°50' E 014°17'0 0.0
2018-Aug-12 19:58N 40°50' E 014°17'0 0.0
2018-Aug-12 19:28N 40°50' E 014°17'0 0.0
2018-Aug-12 18:58N 40°50' E 014°17'0 0.0
2018-Aug-12 18:28N 40°50' E 014°17'0 0.0
2018-Aug-12 17:55N 40°50' E 014°17'0 0.0
2018-Aug-12 17:25N 40°50' E 014°17'0 0.0
2018-Aug-12 16:58N 40°50' E 014°17'0 0.0
2018-Aug-12 16:28N 40°50' E 014°17'0 0.0
2018-Aug-12 15:58N 40°50' E 014°17'0 0.0
2018-Aug-12 15:28N 40°50' E 014°17'0 0.0
2018-Aug-12 14:58N 40°50' E 014°17'0 0.0
2018-Aug-12 14:28N 40°50' E 014°17'0 0.0
2018-Aug-12 13:58N 40°50' E 014°17'0 0.0
2018-Aug-12 13:28N 40°50' E 014°17'0 0.0
2018-Aug-12 12:58N 40°50' E 014°17'0 0.0
2018-Aug-12 12:28N 40°50' E 014°17'0 0.0
2018-Aug-12 11:58N 40°50' E 014°17'0 0.0
2018-Aug-12 11:28N 40°50' E 014°17'0 0.0
2018-Aug-12 10:58N 40°50' E 014°17'0 0.0
2018-Aug-12 10:28N 40°50' E 014°17'0 0.0
2018-Aug-12 09:58N 40°50' E 014°17'0 0.0
2018-Aug-12 09:28N 40°50' E 014°17'0 0.0
2018-Aug-12 08:58N 40°50' E 014°17'0 0.0
2018-Aug-12 08:28N 40°50' E 014°17'0 0.0
2018-Aug-12 07:58N 40°50' E 014°17'0 0.0
2018-Aug-12 07:28N 40°50' E 014°17'0 0.0
2018-Aug-12 06:58N 40°50' E 014°17'0 0.0
2018-Aug-12 06:28N 40°50' E 014°17'0 0.0
2018-Aug-12 05:58N 40°50' E 014°17'0 0.0
2018-Aug-12 05:28N 40°50' E 014°17'0 0.0
2018-Aug-12 04:52N 40°50' E 014°17'0 0.0
2018-Aug-12 04:28N 40°50' E 014°17'0 0.0
2018-Aug-12 03:58N 40°50' E 014°17'0 0.0
2018-Aug-12 03:28N 40°50' E 014°17'0 0.0
2018-Aug-12 02:55N 40°50' E 014°17'0 0.0
2018-Aug-12 02:25N 40°50' E 014°17'0 0.0
2018-Aug-12 01:58N 40°50' E 014°17'0 0.0
2018-Aug-12 01:28N 40°50' E 014°17'0 0.0
2018-Aug-12 00:58N 40°50' E 014°17'0 0.0
2018-Aug-12 00:28N 40°50' E 014°17'0 0.0
2018-Aug-11 23:58N 40°50' E 014°17'0 0.0
2018-Aug-11 23:28N 40°50' E 014°17'0 0.0
2018-Aug-11 22:58N 40°50' E 014°17'0 0.0
2018-Aug-11 22:28N 40°50' E 014°17'0 0.0
2018-Aug-11 21:58N 40°50' E 014°17'0 0.0
2018-Aug-11 21:28N 40°50' E 014°17'0 0.0
2018-Aug-11 20:58N 40°50' E 014°17'0 0.0
2018-Aug-11 20:28N 40°50' E 014°17'0 0.0
2018-Aug-11 19:58N 40°50' E 014°17'0 0.0
2018-Aug-11 19:28N 40°50' E 014°17'0 0.0
2018-Aug-11 18:58N 40°50' E 014°17'0 0.0
2018-Aug-11 18:28N 40°50' E 014°17'0 0.0
2018-Aug-11 17:58N 40°50' E 014°17'0 0.0
2018-Aug-11 17:28N 40°50' E 014°17'0 0.0
2018-Aug-11 16:58N 40°50' E 014°17'0 0.0
2018-Aug-11 16:22N 40°50' E 014°17'0 0.0
2018-Aug-11 15:52N 40°50' E 014°17'0 0.0
2018-Aug-11 15:22N 40°50' E 014°17'0 0.0
2018-Aug-11 14:55N 40°50' E 014°17'0 0.0
2018-Aug-11 14:28N 40°50' E 014°17'0 0.0
2018-Aug-11 13:58N 40°50' E 014°17'0 0.0
2018-Aug-11 13:28N 40°50' E 014°17'0 0.0
2018-Aug-11 12:58N 40°50' E 014°17'0 0.0
2018-Aug-11 12:28N 40°50' E 014°17'0 0.0
2018-Aug-11 11:58N 40°50' E 014°17'0 0.0
2018-Aug-11 11:25N 40°50' E 014°17'0 0.0
2018-Aug-11 10:55N 40°50' E 014°17'0 0.0
2018-Aug-11 10:28N 40°50' E 014°17'0 0.0
2018-Aug-11 09:58N 40°50' E 014°17'0 0.0
2018-Aug-11 09:28N 40°50' E 014°17'0 0.0
2018-Aug-11 08:58N 40°50' E 014°17'0 0.0
2018-Aug-11 08:25N 40°50' E 014°17'0 0.0
2018-Aug-11 07:58N 40°50' E 014°17'0 0.0
2018-Aug-11 07:28N 40°50' E 014°17'0 0.0
2018-Aug-11 06:58N 40°50' E 014°17'0 0.0
2018-Aug-11 06:28N 40°50' E 014°17'0 0.0
2018-Aug-11 05:58N 40°50' E 014°17'0 0.0
2018-Aug-11 05:28N 40°50' E 014°17'0 0.0
2018-Aug-11 04:56N 40°50' E 014°17'0 0.4
2018-Aug-11 04:30N 40°50' E 014°17'2 3.5
2018-Aug-11 04:00N 40°48' E 014°17'3 6.8
2018-Aug-11 03:30N 40°45' E 014°15'611.8
2018-Aug-11 03:00N 40°40' E 014°11'815.2
2018-Aug-11 02:30N 40°34' E 014°06'816.3
2018-Aug-11 02:00N 40°26' E 014°10'817.0
2018-Aug-11 01:30N 40°19' E 014°16'816.9
2018-Aug-11 01:00N 40°12' E 014°23'816.3
2018-Aug-11 00:30N 40°05' E 014°28'816.2
2018-Aug-11 00:00N 39°58' E 014°34'816.1
2018-Aug-10 23:30N 39°52' E 014°41'815.8
2018-Aug-10 23:00N 39°45' E 014°46'5217.2
2018-Aug-10 19:57N 39°00' E 015°21'817.4
2018-Aug-10 19:30N 38°54' E 015°27'2917.0
2018-Aug-10 17:48N 38°30' E 015°48'514.0
2018-Aug-10 17:27N 38°27' E 015°53'1 0.8
2018-Aug-10 15:57N 38°27' E 015°54'0 0.0
2018-Aug-10 15:03N 38°27' E 015°54'0 0.0
2018-Aug-10 14:39N 38°27' E 015°54'0 0.0
2018-Aug-10 14:27N 38°27' E 015°54'0 0.0
2018-Aug-10 13:51N 38°27' E 015°54'0 0.0
2018-Aug-10 13:27N 38°27' E 015°54'0 0.0
2018-Aug-10 12:57N 38°27' E 015°54'0 0.0
2018-Aug-10 12:27N 38°27' E 015°54'0 0.0
2018-Aug-10 11:57N 38°27' E 015°54'0 0.0
2018-Aug-10 11:21N 38°27' E 015°54'0 0.0
2018-Aug-10 10:21N 38°27' E 015°54'0 0.0
2018-Aug-10 09:51N 38°27' E 015°54'0 0.0
2018-Aug-10 09:21N 38°27' E 015°54'0 0.0
2018-Aug-10 08:57N 38°27' E 015°54'0 0.0
2018-Aug-10 08:21N 38°27' E 015°54'0 0.0
2018-Aug-10 07:33N 38°27' E 015°54'0 0.0
2018-Aug-10 07:21N 38°27' E 015°54'0 0.0
2018-Aug-10 06:57N 38°27' E 015°54'0 0.0
2018-Aug-10 05:39N 38°27' E 015°54'0 0.0
2018-Aug-10 05:27N 38°27' E 015°54'0 0.0
2018-Aug-10 04:57N 38°27' E 015°54'0 0.0
2018-Aug-10 04:15N 38°27' E 015°54'0 0.0
2018-Aug-10 03:57N 38°27' E 015°54'0 0.0
2018-Aug-10 03:27N 38°27' E 015°54'0 0.0
2018-Aug-10 02:57N 38°27' E 015°54'0 0.0
2018-Aug-10 01:45N 38°27' E 015°54'0 0.0
2018-Aug-10 01:27N 38°27' E 015°54'0 0.0
2018-Aug-10 00:51N 38°27' E 015°54'  

Dump ship's entire track history